Flight Track Log - Related Links

Times and Time Zones

All times are in EDT time to prevent confusion due to time zone crossing. See the CMP488 flight status page for this flight to view local times or setup timezone preferences in your user account.

Time Position Orientation Groundspeed Altitude Reporting Facility
EDT Latitude Longitude Course Direction KTS MPH feet Rate Location/Type
Fri 10:09:15 PM 30.4206 -78.5160 184° South  Level FlightAware Approximate
Fri 10:10:15 PM 30.5403 -78.4969 184° South  Level FlightAware Approximate
Fri 10:11:15 PM 30.6599 -78.4778 184° South  Level FlightAware Approximate
Fri 10:12:15 PM 30.7796 -78.4587 184° South  Level FlightAware Approximate
Fri 10:13:15 PM 30.8946 -78.4313 184° South  Level FlightAware Approximate
Fri 10:14:15 PM 31.0146 -78.4154 185° South  Level FlightAware Approximate
Fri 10:15:15 PM 31.1346 -78.3995 185° South  Level FlightAware Approximate
Fri 10:16:15 PM 31.2546 -78.3836 185° South  Level FlightAware Approximate
Fri 10:17:14 PM 23.2406 -79.0839 North 457 526 36,000  Level Miami Center
Fri 10:18:14 PM 23.3681 -79.0814 359° North 457 526 36,000  Level Miami Center
Fri 10:19:14 PM 23.4933 -79.0836 North 457 526 36,000  Level Miami Center
Fri 10:20:14 PM 23.6231 -79.0744 North 457 526 36,000  Level Miami Center
Fri 10:21:14 PM 23.7506 -79.0722 North 457 526 36,000 -50 Level Miami Center
Fri 10:22:14 PM 23.8781 -79.0675 360° North 457 526 35,900 -50 Descending Miami Center
Fri 10:23:14 PM 24.0014 -79.0675 North 452 520 35,900  Level Miami Center
Fri 10:24:14 PM 24.1289 -79.0514 North 457 526 35,900  Level Miami Center
Fri 10:25:14 PM 24.2547 -79.0308 North 457 526 35,900 950 Level Miami Center
Fri 10:26:14 PM 24.3761 -79.0125 North 451 519 37,800 1,450 Climbing Miami Center
Fri 10:27:14 PM 24.4975 -78.9964 North 446 513 38,800 850 Climbing Miami Center
Fri 10:28:14 PM 24.6189 -78.9778 North 437 503 39,500 700 Climbing Miami Center
Fri 10:29:14 PM 24.7447 -78.9617 North 442 509 40,200 650 Climbing Miami Center
Fri 10:30:14 PM 24.8661 -78.9431 North 447 514 40,800 400 Climbing Miami Center
Fri 10:31:14 PM 24.9792 -78.9336 North 447 514 41,000 100 Climbing Miami Center
Fri 10:32:14 PM 25.1067 -78.9150 North 452 520 41,000  Level Miami Center
Fri 10:33:14 PM 25.2386 -78.8944 North 459 528 41,000  Level Miami Center
Fri 10:34:14 PM 25.3622 -78.8781 North 465 535 41,000  Level Miami Center
Fri 10:35:14 PM 25.4919 -78.8572 North 465 535 41,000  Level Miami Center
Fri 10:36:14 PM 25.6239 -78.8361 North 458 527 41,000  Level Miami Center
Fri 10:37:14 PM 25.7517 -78.8200 North 464 534 41,000  Level Miami Center
Fri 10:38:14 PM 25.8794 -78.8011 North 469 540 41,000  Level Miami Center
Fri 10:39:14 PM 26.0092 -78.7825 North 464 534 41,000  Level Miami Center
Fri 10:40:14 PM 26.1536 -78.7569 North 469 540 41,000  Level Miami Center
Fri 10:41:14 PM 26.2792 -78.7381 North 462 532 41,000  Level Miami Center
Fri 10:42:14 PM 26.4111 -78.7194 North 462 532 41,000 -50 Level Miami Center
Fri 10:43:14 PM 26.5389 -78.7006 351° North 468 539 40,900 -50 Descending Miami Center
Fri 10:44:14 PM 26.6617 -78.7233 344° North 449 517 40,900 50 Level Miami Center
Fri 10:45:14 PM 26.7700 -78.7575 357° North 449 517 41,000 50 Climbing Miami Center
Fri 10:46:14 PM 26.8931 -78.7642 North 444 511 41,000 -50 Level Miami Center
Fri 10:47:14 PM 27.0228 -78.7547 North 444 511 40,900  Descending Miami Center
Fri 10:48:14 PM 27.1442 -78.7381 North 451 519 41,000 50 Climbing Miami Center
Fri 10:49:14 PM 27.2694 -78.7236 North 451 519 41,000  Level Miami Center
Fri 10:50:14 PM 27.4117 -78.7072 North 451 519 41,000  Level Miami Center
Fri 10:51:14 PM 27.5372 -78.6953 North 451 519 41,000  Level Miami Center
Fri 10:52:14 PM 27.6458 -78.6853 North 451 519 41,000  Level Miami Center
Fri 10:53:14 PM 27.7756 -78.6686 North 451 519 41,000  Level Miami Center
Fri 10:54:14 PM 27.9178 -78.6519 North 451 519 41,000 -50 Level Miami Center
Fri 10:55:14 PM 28.0433 -78.6397 North 456 525 40,900  Descending Miami Center
Fri 10:56:14 PM 28.1708 -78.6253 North 456 525 41,000  Climbing Miami Center
Fri 10:57:14 PM 28.2983 -78.6086 North 456 525 40,900  Descending Miami Center
Fri 10:58:14 PM 28.4236 -78.5961 North 456 525 41,000  Climbing Miami Center
Fri 10:59:14 PM 28.5469 -78.5792 North 462 532 40,900  Descending Miami Center
Fri 11:00:14 PM 28.6767 -78.5669 North 462 532 41,000  Climbing Miami Center
Fri 11:01:14 PM 28.8019 -78.5525 North 457 526 40,900  Descending Miami Center
Fri 11:02:14 PM 28.9336 -78.5356 North 462 532 41,000 50 Climbing Miami Center
Fri 11:03:14 PM 29.0569 -78.5183 North 462 532 41,000  Level Miami Center
Fri 11:04:14 PM 29.1906 -78.5083 North 462 532 41,000  Level Miami Center
Fri 11:05:14 PM 29.3200 -78.4914 North 463 533 41,000  Level Miami Center
Fri 11:06:14 PM 29.4497 -78.4767 North 458 527 41,000 -50 Level Miami Center
Fri 11:07:14 PM 29.5728 -78.4569 North 460 529 40,900  Descending Miami Center
Fri 11:08:14 PM 29.7064 -78.4469 North 460 529 41,000 22 Climbing Miami Center
Fri 11:11:46 PM 30.1494 -78.3889 North 481 554 41,000  Level Jacksonville Center
Fri 11:12:47 PM 30.2700 -78.3786 North 452 520 41,000  Level Jacksonville Center
Fri 11:13:46 PM 30.4011 -78.3628 North 442 509 41,000  Level Jacksonville Center
Fri 11:14:46 PM 30.5342 -78.3469 North 461 531 41,000  Level Jacksonville Center
Fri 11:15:46 PM 30.6628 -78.3308 North 467 537 41,000  Level Jacksonville Center
Fri 11:16:46 PM 30.7939 -78.3150 North 467 537 41,000  Level Jacksonville Center
Fri 11:17:46 PM 30.9206 -78.2992 North 467 537 41,000  Level Jacksonville Center
Fri 11:18:46 PM 31.0706 -78.2942 North 462 532 41,000  Level Jacksonville Center
Fri 11:19:46 PM 31.1994 -78.2733 North 476 548 41,000  Level Jacksonville Center
Fri 11:20:46 PM 31.3283 -78.2622 North 476 548 41,000  Level Jacksonville Center
Fri 11:21:46 PM 31.4569 -78.2411 North 471 542 41,000  Level Jacksonville Center
Fri 11:22:46 PM 31.5858 -78.2250 North 471 542 41,000  Level Jacksonville Center
Fri 11:23:46 PM 31.7147 -78.2086 North 466 536 41,000  Level Jacksonville Center
Fri 11:24:46 PM 31.8456 -78.1947 North 466 536 41,000  Level Jacksonville Center
Fri 11:25:46 PM 31.9744 -78.1783 North 461 531 41,000  Level Jacksonville Center
Fri 11:26:46 PM 32.1033 -78.1619 North 461 531 41,000  Level Jacksonville Center
Fri 11:27:46 PM 32.2300 -78.1481 North 461 531 41,000  Level Jacksonville Center
Fri 11:28:46 PM 32.3586 -78.1292 North 461 531 41,000  Level Jacksonville Center
Fri 11:29:46 PM 32.4875 -78.1125 North 461 531 41,000  Level Jacksonville Center
Fri 11:30:46 PM 32.6164 -78.0958 North 461 531 41,000  Level Jacksonville Center
Fri 11:31:46 PM 32.7472 -78.0814 North 461 531 41,000  Level Jacksonville Center
Fri 11:32:46 PM 32.8781 -78.0647 North 461 531 41,000  Level Jacksonville Center
Fri 11:33:46 PM 33.0067 -78.0478 North 461 531 41,000  Level Jacksonville Center
Fri 11:34:46 PM 33.1336 -78.0336 North 461 531 41,000  Level Jacksonville Center
Fri 11:35:46 PM 33.2644 -78.0164 North 461 531 41,000  Level Jacksonville Center
Fri 11:37:24 PM 33.4678 -77.9914 North 461 531 41,000  Level Washington Center
Fri 11:38:23 PM 33.5953 -77.9725 North 461 531 41,000  Level Washington Center
Fri 11:39:24 PM 33.7228 -77.9561 North 461 531 41,000  Level Washington Center
Fri 11:40:25 PM 33.8483 -77.9397 North 461 531 41,000  Level Washington Center
Fri 11:41:22 PM 33.9822 -77.9211 North 473 544 41,000  Level Washington Center
Fri 11:42:22 PM 34.1097 -77.9069 North 467 537 41,000  Level Washington Center
Fri 11:43:22 PM 34.2250 -77.8903 North 467 537 41,000  Level Washington Center
Fri 11:44:23 PM 34.3567 -77.8761 North 474 545 41,000  Level Washington Center
Fri 11:45:24 PM 34.4839 -77.8747 North 468 539 41,000  Level Washington Center
Fri 11:46:25 PM 34.6111 -77.8733 North 462 532 41,000  Level Washington Center
Fri 11:47:22 PM 34.7406 -77.8719 North 457 526 41,000  Level Washington Center
Fri 11:48:24 PM 34.8658 -77.8678 North 450 518 41,000  Level Washington Center
Fri 11:49:22 PM 34.9933 -77.8636 North 450 518 41,000  Level Washington Center
Fri 11:50:23 PM 35.1225 -77.8622 North 457 526 41,000  Level Washington Center
Fri 11:51:23 PM 35.2519 -77.8608 360° North 462 532 41,000  Level Washington Center
Fri 11:52:23 PM 35.3961 -77.8597 360° North 462 532 41,000  Level Washington Center
Fri 11:53:24 PM 35.5275 -77.8583 360° North 462 532 41,000  Level Washington Center
Fri 11:54:24 PM 35.6589 -77.8569 360° North 462 532 41,000  Level Washington Center
Fri 11:55:25 PM 35.7883 -77.8556 360° North 462 532 41,000  Level Washington Center
Fri 11:56:25 PM 35.9197 -77.8542 360° North 462 532 41,000  Level Washington Center
Fri 11:57:22 PM 36.0514 -77.8528 North 462 532 41,000  Level Washington Center
Fri 11:58:23 PM 36.1808 -77.8461 North 457 526 41,000  Level Washington Center
Fri 11:59:24 PM 36.3128 -77.8217 10° North 464 534 41,000  Level Washington Center
Sat 12:00:25 AM 36.4383 -77.7942 10° North 469 540 41,000  Level Washington Center
Sat 12:01:25 AM 36.5683 -77.7669 North 464 534 41,000  Level Washington Center
Sat 12:02:24 AM 36.7000 -77.7447 10° North 471 542 41,000 -864 Level Washington Center
Sat 12:03:23 AM 36.8300 -77.7172 10° North 471 542 39,300 -2,231 Descending Washington Center
Sat 12:04:25 AM 36.9578 -77.6894 North 466 536 36,500 -3,126 Descending Washington Center
Sat 12:05:22 AM 37.0917 -77.6644 North 471 542 33,100 -3,458 Descending Washington Center
Sat 12:06:23 AM 37.2233 -77.6394 North 471 542 29,700 -3,025 Descending Washington Center
Sat 12:07:23 AM 37.3533 -77.6142 10° North 471 542 27,000 -2,700 Descending Washington Center
Sat 12:08:23 AM 37.4789 -77.5861 10° North 466 536 24,300 -2,628 Descending Washington Center
Sat 12:09:24 AM 37.5981 -77.5603 North 455 524 21,700 -2,600 Descending Washington Center
Sat 12:10:23 AM 37.7175 -77.5372 North 444 511 19,100 -2,579 Descending Washington Center
Sat 12:11:25 AM 37.8303 -77.5164 10° North 425 489 16,500 -2,550 Descending Washington Center
Sat 12:12:23 AM 37.9392 -77.4928 North 410 472 14,000 -2,492 Descending Washington Center
Sat 12:13:23 AM 38.0439 -77.4717 North 398 458 11,600 -1,900 Descending Washington Center
Sat 12:14:23 AM 38.1464 -77.4506 17° North 380 437 10,200 -836 Descending Washington Center
Sat 12:15:25 AM 38.2281 -77.4181 25° Northeast 342 394 9,900 -98 Descending Washington Center
Sat 12:16:25 AM 38.2975 -77.3775 13° North 312 359 10,000 -454 Climbing Washington Center
Sat 12:17:24 AM 38.3750 -77.3556 359° North 291 335 9,000 -1,119 Descending Washington Center
Sat 12:18:23 AM 38.4542 -77.3575 359° North 279 321 7,800 -1,500 Descending Washington Center
Sat 12:19:24 AM 38.5294 -77.3592 North 274 315 6,000 -1,765 Descending Washington Center
Sat 12:20:22 AM 38.6064 -77.3558 356° North 274 315 4,300 -1,041 Descending Washington Center
Sat 12:21:25 AM 38.6772 -77.3628 353° North 268 308 3,900 -149 Descending Washington Center
Sat 12:22:23 AM 38.7417 -77.3722 359° North 246 283 4,000 -256 Climbing Washington Center
Sat 12:23:22 AM 38.8042 -77.3739 North 233 268 3,400 -522 Descending Washington Center
Sat 12:25:04 AM 38.9167 -77.3667 11° North 231 266 2,600 -500 Descending Potomac TRACON
Sat 12:26:10 AM 38.9833 -77.3500 339° North 208 239 2,000 -446 Descending Potomac TRACON
Sat 12:27:05 AM 39.0167 -77.3667 288° West 179 206 1,700 -149 Descending Potomac TRACON
Sat 12:28:11 AM 39.0333 -77.4333 180° South 153 176 1,700 -198 Level Potomac TRACON
Sat 12:29:06 AM 39.0167 -77.4333 180° South 135 155 1,300 -522 Descending Potomac TRACON
Sat 12:30:06 AM 38.9833 -77.4333 180° South 123 142 700 -600 Descending Potomac TRACON

Login

Don't have an account? Register now (free) for customized features, flight alerts, and more!